Time;durP1;ratioP1;P1;durP2;ratioP2;P2;SDS_P1;SDS_P2;PMS_P1;PMS_P2;Temp;Humidity;BMP_temperature;BMP_pressure;BME280_temperature;BME280_humidity;BME280_pressure;Samples;Min_cycle;Max_cycle;Signal;HPM_P1;HPM_P2
2022/05/16 00:02:25;;;;;;;;;;;28.00;38.70;;;;;;5116624;28;997;-45
2022/05/16 00:04:51;;;;;;;;;;;28.00;38.70;;;;;;5116497;28;944;-46
2022/05/16 00:07:19;;;;;;;;;;;28.00;38.60;;;;;;5116050;28;988;-45
2022/05/16 00:09:45;;;;;;;;;;;28.00;38.70;;;;;;5116308;28;1008;-45
2022/05/16 00:12:13;;;;;;;;;;;27.90;38.50;;;;;;5117635;28;949;-46
2022/05/16 00:14:41;;;;;;;;;;;27.90;38.50;;;;;;5117876;28;1984;-45
2022/05/16 00:17:07;;;;;;;;;;;27.90;38.50;;;;;;5117688;28;1000;-46
2022/05/16 00:19:36;;;;;;;;;;;27.90;38.50;;;;;;5117782;28;939;-46
2022/05/16 00:22:03;;;;;;;;;;;27.90;38.40;;;;;;5117474;28;1014;-46
2022/05/16 00:24:30;;;;;;;;;;;27.90;38.50;;;;;;5117516;28;896;-47
2022/05/16 00:26:58;;;;;;;;;;;27.90;38.40;;;;;;5117714;28;1040;-45
2022/05/16 00:29:26;;;;;;;;;;;27.90;38.30;;;;;;5117439;28;956;-46
2022/05/16 00:31:54;;;;;;;;;;;27.90;38.40;;;;;;5117524;28;1083;-45
2022/05/16 00:34:20;;;;;;;;;;;27.90;38.40;;;;;;5117599;28;1978;-47
2022/05/16 00:36:49;;;;;;;;;;;27.90;38.30;;;;;;5117518;28;989;-45
2022/05/16 00:39:16;;;;;;;;;;;27.90;38.30;;;;;;5117493;28;965;-46
2022/05/16 00:41:43;;;;;;;;;;;27.90;38.30;;;;;;5117031;28;1031;-47
2022/05/16 00:44:10;;;;;;;;;;;27.90;38.30;;;;;;5116767;28;1012;-46
2022/05/16 00:46:37;;;;;;;;;;;27.90;38.20;;;;;;5117184;28;972;-47
2022/05/16 00:49:05;;;;;;;;;;;27.90;38.10;;;;;;5117046;28;1055;-46
2022/05/16 00:51:35;;;;;;;;;;;27.90;38.10;;;;;;5117243;28;1007;-45
2022/05/16 00:54:09;;;;;;;;;;;27.90;38.20;;;;;;5116756;28;1901;-46
2022/05/16 00:56:36;;;;;;;;;;;27.90;38.20;;;;;;5118365;28;996;-46
2022/05/16 00:59:03;;;;;;;;;;;27.90;38.20;;;;;;5120094;28;1475;-46
2022/05/16 01:06:59;;;;;;;;;;;27.90;38.10;;;;;;5119057;28;1021;-46
2022/05/16 01:09:27;;;;;;;;;;;27.90;38.00;;;;;;5119245;28;932;-46
2022/05/16 01:11:54;;;;;;;;;;;27.90;38.10;;;;;;5119137;28;996;-46
2022/05/16 01:14:43;;;;;;;;;;;27.90;38.00;;;;;;5120023;28;1901;-45
2022/05/16 01:17:10;;;;;;;;;;;27.90;39.20;;;;;;5119724;28;1024;-46
2022/05/16 01:19:37;;;;;;;;;;;27.90;38.00;;;;;;5119125;28;1036;-47
2022/05/16 01:22:06;;;;;;;;;;;27.90;38.00;;;;;;5119207;28;1848;-46
2022/05/16 01:24:34;;;;;;;;;;;27.90;37.90;;;;;;5119687;28;1027;-45
2022/05/16 01:27:01;;;;;;;;;;;27.90;38.00;;;;;;5119846;28;993;-46
2022/05/16 01:29:28;;;;;;;;;;;27.80;37.80;;;;;;5119290;28;889;-45
2022/05/16 01:31:55;;;;;;;;;;;27.80;37.80;;;;;;5119633;28;1003;-45
2022/05/16 01:34:21;;;;;;;;;;;27.80;37.90;;;;;;5119310;28;1979;-45
2022/05/16 01:36:48;;;;;;;;;;;27.90;37.80;;;;;;5119558;28;1035;-46
2022/05/16 01:39:15;;;;;;;;;;;27.80;37.80;;;;;;5119430;28;1078;-46
2022/05/16 01:41:43;;;;;;;;;;;27.80;37.70;;;;;;5120424;28;996;-46
2022/05/16 01:44:10;;;;;;;;;;;27.80;37.70;;;;;;5120246;28;1035;-45
2022/05/16 01:46:39;;;;;;;;;;;27.80;37.70;;;;;;5121285;28;1003;-46
2022/05/16 01:49:07;;;;;;;;;;;27.80;37.70;;;;;;5119700;28;1007;-46
2022/05/16 01:51:33;;;;;;;;;;;27.90;37.80;;;;;;5120109;28;1000;-45
2022/05/16 01:54:02;;;;;;;;;;;27.80;37.70;;;;;;5119663;28;1988;-46
2022/05/16 01:56:28;;;;;;;;;;;27.80;37.70;;;;;;5119425;28;1035;-46
2022/05/16 01:58:56;;;;;;;;;;;27.80;37.80;;;;;;5119284;28;1259;-45
2022/05/16 02:01:23;;;;;;;;;;;27.80;37.90;;;;;;5119910;28;1027;-45
2022/05/16 02:03:50;;;;;;;;;;;27.80;37.70;;;;;;5119528;28;991;-45
2022/05/16 02:06:17;;;;;;;;;;;27.80;37.60;;;;;;5118978;28;1035;-47
2022/05/16 02:08:44;;;;;;;;;;;27.80;37.80;;;;;;5117493;28;995;-45
2022/05/16 02:11:10;;;;;;;;;;;27.80;37.50;;;;;;5119003;28;995;-45
2022/05/16 02:13:38;;;;;;;;;;;27.80;37.80;;;;;;5119526;28;1897;-46
2022/05/16 02:16:07;;;;;;;;;;;27.80;37.90;;;;;;5119276;28;1011;-45
2022/05/16 02:18:34;;;;;;;;;;;27.80;37.80;;;;;;5117963;28;957;-46
2022/05/16 02:26:26;;;;;;;;;;;27.80;38.00;;;;;;5117434;28;1032;-46
2022/05/16 02:28:52;;;;;;;;;;;27.80;38.20;;;;;;5117345;28;959;-45
2022/05/16 02:31:21;;;;;;;;;;;27.80;38.10;;;;;;5117879;28;977;-45
2022/05/16 02:33:48;;;;;;;;;;;27.80;38.10;;;;;;5117797;28;1984;-45
2022/05/16 02:36:15;;;;;;;;;;;27.80;38.10;;;;;;5117236;28;980;-46
2022/05/16 02:38:42;;;;;;;;;;;27.80;38.10;;;;;;5118115;28;1063;-44
2022/05/16 02:41:09;;;;;;;;;;;27.80;38.20;;;;;;5117059;28;1008;-46
2022/05/16 02:43:36;;;;;;;;;;;27.80;38.00;;;;;;5118782;28;1000;-45
2022/05/16 02:46:03;;;;;;;;;;;27.80;38.20;;;;;;5117633;28;1004;-45
2022/05/16 02:48:31;;;;;;;;;;;27.80;38.10;;;;;;5118632;28;941;-46
2022/05/16 02:50:58;;;;;;;;;;;27.80;38.30;;;;;;5117762;28;944;-46
2022/05/16 02:53:24;;;;;;;;;;;27.80;38.20;;;;;;5117157;28;988;-46
2022/05/16 02:55:51;;;;;;;;;;;27.70;38.20;;;;;;5117293;28;1906;-46
2022/05/16 02:58:18;;;;;;;;;;;27.80;38.20;;;;;;5117527;28;1248;-46
2022/05/16 03:00:44;;;;;;;;;;;27.70;38.10;;;;;;5118092;28;980;-46
2022/05/16 03:03:11;;;;;;;;;;;27.70;38.20;;;;;;5117884;28;1030;-46
2022/05/16 03:05:39;;;;;;;;;;;27.70;39.30;;;;;;5117771;28;980;-46
2022/05/16 03:08:06;;;;;;;;;;;27.70;38.20;;;;;;5117801;28;956;-46
2022/05/16 03:10:33;;;;;;;;;;;27.70;38.20;;;;;;5118523;28;984;-45
2022/05/16 03:13:00;;;;;;;;;;;27.70;38.10;;;;;;5118776;28;1813;-45
2022/05/16 03:15:29;;;;;;;;;;;27.70;38.10;;;;;;5118745;28;1989;-46
2022/05/16 03:17:56;;;;;;;;;;;27.70;38.20;;;;;;5118265;28;941;-45
2022/05/16 03:20:22;;;;;;;;;;;27.70;38.30;;;;;;5118246;28;1003;-45
2022/05/16 03:22:51;;;;;;;;;;;27.70;38.20;;;;;;5118918;28;988;-45
2022/05/16 03:25:18;;;;;;;;;;;27.70;38.40;;;;;;5118379;28;953;-46
2022/05/16 03:27:44;;;;;;;;;;;27.70;38.40;;;;;;5118361;28;972;-46
2022/05/16 03:30:12;;;;;;;;;;;27.70;38.30;;;;;;5117742;28;948;-46
2022/05/16 03:32:39;;;;;;;;;;;27.70;38.20;;;;;;5116735;28;1165;-46
2022/05/16 03:35:06;;;;;;;;;;;27.70;38.30;;;;;;5117252;28;2281;-46
2022/05/16 03:37:33;;;;;;;;;;;27.70;38.30;;;;;;5116650;28;904;-45
2022/05/16 03:42:45;;;;;;;;;;;27.70;38.30;;;;;;5117570;28;597;-45
2022/05/16 03:45:12;;;;;;;;;;;27.70;38.30;;;;;;5118330;28;1004;-46
2022/05/16 03:47:38;;;;;;;;;;;27.70;38.40;;;;;;5117636;28;1009;-47
2022/05/16 03:50:06;;;;;;;;;;;27.70;38.30;;;;;;5117624;28;953;-46
2022/05/16 03:52:33;;;;;;;;;;;27.70;38.30;;;;;;5117584;28;984;-46
2022/05/16 03:55:01;;;;;;;;;;;27.70;38.30;;;;;;5117323;28;1980;-45
2022/05/16 03:57:28;;;;;;;;;;;27.70;38.30;;;;;;5116856;28;945;-46
2022/05/16 03:59:54;;;;;;;;;;;27.70;38.30;;;;;;5076822;28;934;-46
2022/05/16 04:02:21;;;;;;;;;;;27.70;38.20;;;;;;5076113;28;1560;-45
2022/05/16 04:04:48;;;;;;;;;;;27.70;38.30;;;;;;5075598;28;979;-46
2022/05/16 04:07:14;;;;;;;;;;;27.70;38.40;;;;;;5075969;28;968;-46
2022/05/16 04:09:41;;;;;;;;;;;27.70;38.50;;;;;;5075095;28;952;-46
2022/05/16 04:12:10;;;;;;;;;;;27.70;38.30;;;;;;5075804;28;1000;-45
2022/05/16 04:14:37;;;;;;;;;;;27.70;38.30;;;;;;5075881;28;1898;-46
2022/05/16 04:17:04;;;;;;;;;;;27.70;38.50;;;;;;5075590;28;1098;-45
2022/05/16 04:19:30;;;;;;;;;;;27.70;38.40;;;;;;5075506;28;952;-45
2022/05/16 04:21:57;;;;;;;;;;;27.70;38.50;;;;;;5075658;28;1011;-45
2022/05/16 04:24:24;;;;;;;;;;;27.70;38.50;;;;;;5075425;28;956;-46
2022/05/16 04:26:50;;;;;;;;;;;27.70;38.50;;;;;;5075333;28;1086;-47
2022/05/16 04:29:18;;;;;;;;;;;27.70;38.40;;;;;;5076949;28;1016;-45
2022/05/16 04:31:45;;;;;;;;;;;27.70;38.30;;;;;;5077642;28;972;-45
2022/05/16 04:34:12;;;;;;;;;;;27.70;38.40;;;;;;5078931;28;1985;-46
2022/05/16 04:36:40;;;;;;;;;;;27.70;38.50;;;;;;5078278;28;1147;-46
2022/05/16 04:39:06;;;;;;;;;;;27.70;38.40;;;;;;5079105;28;876;-46
2022/05/16 04:44:19;;;;;;;;;;;27.70;38.50;;;;;;5078703;28;651;-45
2022/05/16 04:46:45;;;;;;;;;;;27.70;38.20;;;;;;5079961;28;1015;-45
2022/05/16 04:49:12;;;;;;;;;;;27.70;38.30;;;;;;5079281;28;865;-46
2022/05/16 04:51:39;;;;;;;;;;;27.70;38.30;;;;;;5077468;28;1023;-47
2022/05/16 04:54:06;;;;;;;;;;;27.70;38.10;;;;;;5078067;28;964;-46
2022/05/16 04:56:33;;;;;;;;;;;27.70;38.40;;;;;;5076910;28;1972;-45
2022/05/16 04:59:00;;;;;;;;;;;27.70;38.40;;;;;;5102061;28;1027;-45
2022/05/16 05:01:29;;;;;;;;;;;27.70;38.50;;;;;;5119215;28;981;-45
2022/05/16 05:03:56;;;;;;;;;;;27.70;38.30;;;;;;5118824;28;960;-45
2022/05/16 05:06:22;;;;;;;;;;;27.70;38.20;;;;;;5117159;28;1009;-46
2022/05/16 05:08:49;;;;;;;;;;;27.70;38.20;;;;;;5116259;28;944;-45
2022/05/16 05:16:45;;;;;;;;;;;27.70;38.50;;;;;;5115499;28;1016;-46
2022/05/16 05:19:12;;;;;;;;;;;27.70;38.30;;;;;;5116384;28;1164;-46
2022/05/16 05:21:39;;;;;;;;;;;27.70;39.60;;;;;;5116971;28;1031;-46
2022/05/16 05:24:07;;;;;;;;;;;27.70;38.50;;;;;;5115661;28;987;-46
2022/05/16 05:26:33;;;;;;;;;;;27.70;38.40;;;;;;5117051;28;973;-47
2022/05/16 05:29:00;;;;;;;;;;;27.70;38.50;;;;;;5114454;28;948;-45
2022/05/16 05:31:28;;;;;;;;;;;27.70;38.50;;;;;;5114424;28;1006;-45
2022/05/16 05:33:57;;;;;;;;;;;27.70;38.40;;;;;;5114331;28;1109;-48
2022/05/16 05:36:25;;;;;;;;;;;27.70;38.60;;;;;;5114700;28;1983;-47
2022/05/16 05:38:52;;;;;;;;;;;27.70;38.70;;;;;;5114489;28;1004;-46
2022/05/16 05:41:19;;;;;;;;;;;27.70;38.10;;;;;;5117111;28;999;-45
2022/05/16 05:43:46;;;;;;;;;;;27.80;38.30;;;;;;5117191;28;943;-45
2022/05/16 05:46:13;;;;;;;;;;;27.80;38.40;;;;;;5117273;28;976;-45
2022/05/16 05:48:40;;;;;;;;;;;27.90;38.00;;;;;;5116382;28;988;-45
2022/05/16 05:51:08;;;;;;;;;;;27.90;37.90;;;;;;5116623;28;947;-46
2022/05/16 05:53:37;;;;;;;;;;;27.90;38.20;;;;;;5116101;28;862;-47
2022/05/16 05:56:04;;;;;;;;;;;27.90;38.20;;;;;;5115165;28;1902;-46
2022/05/16 05:58:32;;;;;;;;;;;27.80;38.80;;;;;;5116135;28;1287;-46
2022/05/16 06:00:59;;;;;;;;;;;27.80;38.90;;;;;;5116036;28;1056;-46
2022/05/16 06:03:26;;;;;;;;;;;27.90;38.70;;;;;;5116814;28;946;-47
2022/05/16 06:05:53;;;;;;;;;;;27.90;38.00;;;;;;5117709;28;972;-48
2022/05/16 06:08:21;;;;;;;;;;;27.90;38.40;;;;;;5116372;28;1023;-48
2022/05/16 06:10:49;;;;;;;;;;;27.90;38.60;;;;;;5116069;28;1797;-48
2022/05/16 06:13:16;;;;;;;;;;;27.90;38.10;;;;;;5116357;28;944;-48
2022/05/16 06:15:43;;;;;;;;;;;27.90;38.10;;;;;;5116674;28;1983;-48
2022/05/16 06:18:10;;;;;;;;;;;28.00;38.50;;;;;;5115953;28;944;-48
2022/05/16 06:20:37;;;;;;;;;;;27.90;38.50;;;;;;5115898;28;916;-47
2022/05/16 06:23:05;;;;;;;;;;;27.90;38.90;;;;;;5116574;28;945;-47
2022/05/16 06:25:33;;;;;;;;;;;27.80;39.00;;;;;;5115302;28;989;-48
2022/05/16 06:28:01;;;;;;;;;;;27.90;38.90;;;;;;5116774;28;925;-46
2022/05/16 06:30:28;;;;;;;;;;;27.90;38.30;;;;;;5116127;28;1065;-46
2022/05/16 06:32:55;;;;;;;;;;;27.90;38.70;;;;;;5115150;28;976;-46
2022/05/16 06:35:21;;;;;;;;;;;27.90;38.60;;;;;;5115171;28;1983;-47
2022/05/16 06:37:48;;;;;;;;;;;27.90;38.80;;;;;;5116285;28;944;-47
2022/05/16 06:40:17;;;;;;;;;;;27.80;38.90;;;;;;5116237;28;1008;-47
2022/05/16 06:42:46;;;;;;;;;;;27.90;38.70;;;;;;5116628;28;945;-46
2022/05/16 06:45:13;;;;;;;;;;;27.90;39.80;;;;;;5116804;28;1028;-46
2022/05/16 06:47:39;;;;;;;;;;;27.80;38.90;;;;;;5115147;28;1000;-46
2022/05/16 06:50:06;;;;;;;;;;;27.80;39.00;;;;;;5115678;28;996;-46
2022/05/16 06:52:33;;;;;;;;;;;27.80;39.00;;;;;;5114842;28;964;-47
2022/05/16 06:55:01;;;;;;;;;;;27.80;39.20;;;;;;5114780;28;1890;-47
2022/05/16 06:57:27;;;;;;;;;;;27.80;39.00;;;;;;5114212;28;929;-47
2022/05/16 06:59:55;;;;;;;;;;;27.80;39.20;;;;;;5114591;28;928;-40
2022/05/16 07:02:22;;;;;;;;;;;27.80;39.00;;;;;;5114450;28;908;-41
2022/05/16 07:04:49;;;;;;;;;;;27.80;39.20;;;;;;5114858;28;932;-39
2022/05/16 07:07:16;;;;;;;;;;;27.80;39.20;;;;;;5114026;28;941;-39
2022/05/16 07:09:42;;;;;;;;;;;27.80;39.20;;;;;;5115034;28;960;-38
2022/05/16 07:12:10;;;;;;;;;;;27.80;39.20;;;;;;5113706;28;984;-43
2022/05/16 07:14:38;;;;;;;;;;;27.80;39.10;;;;;;5115169;28;1005;-40
2022/05/16 07:17:06;;;;;;;;;;;27.80;39.10;;;;;;5113097;28;1981;-42
2022/05/16 07:19:34;;;;;;;;;;;27.80;39.30;;;;;;5113255;28;1007;-40
2022/05/16 07:22:02;;;;;;;;;;;27.80;39.20;;;;;;5113497;28;1155;-40
2022/05/16 07:24:29;;;;;;;;;;;27.80;39.40;;;;;;5113882;28;872;-40
2022/05/16 07:29:39;;;;;;;;;;;27.80;39.50;;;;;;5081338;28;1240;-42
2022/05/16 07:32:09;;;;;;;;;;;27.80;39.50;;;;;;5113724;28;1845;-40
2022/05/16 07:34:36;;;;;;;;;;;27.80;39.60;;;;;;5113715;28;880;-39
2022/05/16 07:37:03;;;;;;;;;;;27.80;39.60;;;;;;5114107;28;1905;-41
2022/05/16 07:39:29;;;;;;;;;;;27.80;39.50;;;;;;5113562;28;881;-39
2022/05/16 07:41:56;;;;;;;;;;;27.80;39.70;;;;;;5113338;28;1067;-39
2022/05/16 07:44:23;;;;;;;;;;;27.80;39.70;;;;;;5113668;28;1047;-40
2022/05/16 07:46:50;;;;;;;;;;;27.80;39.60;;;;;;5114040;28;891;-42
2022/05/16 07:49:19;;;;;;;;;;;27.80;39.60;;;;;;5113539;28;945;-40
2022/05/16 07:51:46;;;;;;;;;;;27.80;39.40;;;;;;5113583;28;908;-41
2022/05/16 07:54:13;;;;;;;;;;;27.80;39.50;;;;;;5115554;28;928;-41
2022/05/16 07:56:40;;;;;;;;;;;27.80;39.30;;;;;;5114713;28;1914;-41
2022/05/16 07:59:09;;;;;;;;;;;27.80;39.30;;;;;;5115174;28;1117;-42
2022/05/16 08:01:36;;;;;;;;;;;27.70;39.20;;;;;;5115194;28;1007;-40
2022/05/16 08:04:04;;;;;;;;;;;27.80;39.20;;;;;;5114974;28;989;-43
2022/05/16 08:06:33;;;;;;;;;;;27.80;39.20;;;;;;5116318;28;926;-38
2022/05/16 08:11:44;;;;;;;;;;;27.80;39.00;;;;;;5121432;28;891;-42
2022/05/16 08:14:11;;;;;;;;;;;27.80;38.90;;;;;;5119879;28;1016;-43
2022/05/16 08:16:38;;;;;;;;;;;27.80;39.00;;;;;;5118587;28;1977;-42
2022/05/16 08:19:05;;;;;;;;;;;27.80;38.80;;;;;;5118613;28;1020;-41
2022/05/16 08:21:34;;;;;;;;;;;27.80;38.90;;;;;;5118579;28;960;-39
2022/05/16 08:24:02;;;;;;;;;;;27.80;38.90;;;;;;5118515;28;1064;-39
2022/05/16 08:26:29;;;;;;;;;;;27.80;38.80;;;;;;5118439;28;936;-42
2022/05/16 08:28:56;;;;;;;;;;;27.80;38.80;;;;;;5119368;28;991;-43
2022/05/16 08:31:28;;;;;;;;;;;27.80;38.90;;;;;;5119143;28;1099;-39
2022/05/16 08:33:55;;;;;;;;;;;27.80;38.80;;;;;;5117735;28;949;-43
2022/05/16 08:42:08;;;;;;;;;;;27.90;38.70;;;;;;5109546;28;1017;-40
2022/05/16 08:44:38;;;;;;;;;;;27.80;38.60;;;;;;5118013;28;941;-39
2022/05/16 08:47:15;;;;;;;;;;;27.80;38.60;;;;;;5116945;28;1564;-42
2022/05/16 08:49:44;;;;;;;;;;;27.80;38.70;;;;;;5116622;28;1008;-39
2022/05/16 08:52:13;;;;;;;;;;;27.90;38.90;;;;;;5117221;28;1001;-40
2022/05/16 08:54:45;;;;;;;;;;;27.90;38.60;;;;;;5115885;28;967;-43
2022/05/16 08:57:13;;;;;;;;;;;27.90;38.50;;;;;;5118478;28;1992;-42
2022/05/16 08:59:42;;;;;;;;;;;27.90;38.50;;;;;;5118824;28;1110;-40
2022/05/16 09:02:11;;;;;;;;;;;27.90;38.40;;;;;;5118561;28;1431;-40
2022/05/16 09:04:42;;;;;;;;;;;27.90;38.40;;;;;;5118529;28;921;-42
2022/05/16 09:07:14;;;;;;;;;;;27.90;38.40;;;;;;5070034;28;1152;-42
2022/05/16 09:09:44;;;;;;;;;;;27.90;38.50;;;;;;5055186;28;1140;-42
2022/05/16 09:12:14;;;;;;;;;;;27.90;38.40;;;;;;5111755;28;1312;-42
2022/05/16 09:14:49;;;;;;;;;;;27.90;38.40;;;;;;5119360;28;1038;-42
2022/05/16 09:17:20;;;;;;;;;;;28.00;38.50;;;;;;5118640;28;1978;-42
2022/05/16 09:19:55;;;;;;;;;;;28.00;38.40;;;;;;5119560;28;1015;-40
2022/05/16 09:22:25;;;;;;;;;;;28.00;38.40;;;;;;5117528;28;1007;-40
2022/05/16 09:24:56;;;;;;;;;;;28.00;38.40;;;;;;5116667;28;1023;-42
2022/05/16 09:30:12;;;;;;;;;;;28.00;38.40;;;;;;5084657;28;999;-40
2022/05/16 09:32:43;;;;;;;;;;;28.00;38.40;;;;;;5115031;28;927;-41
2022/05/16 09:35:17;;;;;;;;;;;28.00;38.40;;;;;;5115245;28;992;-42
2022/05/16 09:37:45;;;;;;;;;;;28.00;38.40;;;;;;5116275;28;1901;-42
2022/05/16 09:40:14;;;;;;;;;;;28.00;38.40;;;;;;5117852;28;1481;-40
2022/05/16 09:42:41;;;;;;;;;;;28.00;38.40;;;;;;5117241;28;1354;-40
2022/05/16 09:45:12;;;;;;;;;;;28.10;38.30;;;;;;5116338;28;1378;-42
2022/05/16 09:47:41;;;;;;;;;;;28.00;38.30;;;;;;5116063;28;838;-40
2022/05/16 09:50:20;;;;;;;;;;;28.00;38.30;;;;;;5117398;28;999;-40
2022/05/16 09:52:50;;;;;;;;;;;28.00;38.40;;;;;;5117505;28;1443;-39
2022/05/16 09:55:30;;;;;;;;;;;28.10;38.40;;;;;;5117030;28;1445;-43
2022/05/16 09:57:58;;;;;;;;;;;28.00;38.40;;;;;;5116653;28;1910;-43
2022/05/16 10:00:31;;;;;;;;;;;28.00;38.40;;;;;;5118709;28;1011;-40
2022/05/16 10:03:01;;;;;;;;;;;28.10;38.50;;;;;;5118694;28;1007;-40
2022/05/16 10:05:29;;;;;;;;;;;28.10;38.50;;;;;;5117968;28;1404;-39
2022/05/16 10:08:01;;;;;;;;;;;28.00;38.40;;;;;;5117406;28;1030;-41
2022/05/16 10:10:32;;;;;;;;;;;28.10;38.40;;;;;;5116576;28;1296;-39
2022/05/16 10:12:58;;;;;;;;;;;28.10;38.40;;;;;;5116143;28;1143;-42
2022/05/16 10:15:25;;;;;;;;;;;28.10;38.40;;;;;;5115928;28;956;-42
2022/05/16 10:17:54;;;;;;;;;;;28.10;38.50;;;;;;5117338;28;1905;-42
2022/05/16 10:20:24;;;;;;;;;;;28.10;38.40;;;;;;5116012;28;1039;-42
2022/05/16 10:22:53;;;;;;;;;;;28.10;38.40;;;;;;5115991;28;1356;-48
2022/05/16 10:25:21;;;;;;;;;;;28.10;38.40;;;;;;5116828;28;1104;-43
2022/05/16 10:27:51;;;;;;;;;;;28.10;38.50;;;;;;5115984;28;856;-41
2022/05/16 10:30:21;;;;;;;;;;;28.10;38.40;;;;;;5115748;28;1135;-43
2022/05/16 10:35:37;;;;;;;;;;;28.10;38.40;;;;;;5115700;28;950;-42
2022/05/16 10:38:06;;;;;;;;;;;28.20;38.50;;;;;;5116002;28;1992;-39
2022/05/16 10:40:35;;;;;;;;;;;28.10;38.40;;;;;;5116004;28;1015;-40
2022/05/16 10:43:14;;;;;;;;;;;28.20;38.40;;;;;;5116072;28;952;-41
2022/05/16 10:45:43;;;;;;;;;;;28.20;38.50;;;;;;5114424;28;944;-43
2022/05/16 10:48:15;;;;;;;;;;;28.20;38.40;;;;;;5115279;28;908;-42
2022/05/16 10:50:46;;;;;;;;;;;28.20;38.40;;;;;;5115007;28;1006;-40
2022/05/16 10:53:14;;;;;;;;;;;28.20;38.40;;;;;;5114787;28;1330;-41
2022/05/16 10:55:44;;;;;;;;;;;28.20;38.30;;;;;;5115070;28;954;-39
2022/05/16 10:58:19;;;;;;;;;;;28.20;38.30;;;;;;5113828;28;1905;-46
2022/05/16 11:00:50;;;;;;;;;;;28.20;38.30;;;;;;5113642;28;993;-46
2022/05/16 11:03:27;;;;;;;;;;;28.30;38.30;;;;;;5111943;28;888;-47
2022/05/16 11:06:05;;;;;;;;;;;28.30;38.30;;;;;;5111833;28;1158;-43
2022/05/16 11:08:36;;;;;;;;;;;28.30;38.30;;;;;;5112693;28;976;-43
2022/05/16 11:11:05;;;;;;;;;;;28.30;38.20;;;;;;5112530;28;937;-47
2022/05/16 11:13:36;;;;;;;;;;;28.30;38.20;;;;;;5113734;28;980;-43
2022/05/16 11:16:08;;;;;;;;;;;28.40;38.30;;;;;;5113420;28;1043;-43
2022/05/16 11:18:40;;;;;;;;;;;28.30;38.20;;;;;;5115002;28;1000;-41
2022/05/16 11:21:19;;;;;;;;;;;28.30;38.20;;;;;;5114168;28;976;-46
2022/05/16 11:23:49;;;;;;;;;;;28.30;38.20;;;;;;5115314;28;977;-46
2022/05/16 11:26:20;;;;;;;;;;;28.30;38.30;;;;;;5114570;28;999;-46
2022/05/16 11:31:37;;;;;;;;;;;28.30;38.20;;;;;;5110365;28;974;-46
2022/05/16 11:34:07;;;;;;;;;;;28.30;38.40;;;;;;5111692;28;1015;-47
2022/05/16 11:36:38;;;;;;;;;;;28.30;38.40;;;;;;5112132;28;1901;-43
2022/05/16 11:39:08;;;;;;;;;;;28.30;38.40;;;;;;5112225;28;984;-42
2022/05/16 11:41:41;;;;;;;;;;;28.30;38.40;;;;;;5111568;28;1007;-46
2022/05/16 11:44:18;;;;;;;;;;;28.30;38.40;;;;;;5112401;28;873;-47
2022/05/16 11:46:49;;;;;;;;;;;28.20;38.40;;;;;;5111889;28;924;-46
2022/05/16 11:49:22;;;;;;;;;;;28.30;38.50;;;;;;5111336;28;988;-47
2022/05/16 11:51:53;;;;;;;;;;;28.20;38.50;;;;;;5109997;28;1019;-46
2022/05/16 11:54:23;;;;;;;;;;;28.30;38.40;;;;;;5111257;28;976;-46
2022/05/16 12:02:36;;;;;;;;;;;28.20;38.50;;;;;;5109576;28;663;-46
2022/05/16 12:05:07;;;;;;;;;;;28.30;38.50;;;;;;5112792;28;987;-47
2022/05/16 12:07:41;;;;;;;;;;;28.30;38.50;;;;;;5112135;28;980;-43
2022/05/16 12:10:19;;;;;;;;;;;28.30;38.50;;;;;;5112781;28;955;-42
2022/05/16 12:12:48;;;;;;;;;;;28.40;38.40;;;;;;5113110;28;1011;-41
2022/05/16 12:15:20;;;;;;;;;;;28.40;38.50;;;;;;5111941;28;1032;-42
2022/05/16 12:17:51;;;;;;;;;;;28.30;38.50;;;;;;5113968;28;1909;-41
2022/05/16 12:20:33;;;;;;;;;;;28.30;38.50;;;;;;5110123;28;1004;-43
2022/05/16 12:23:00;;;;;;;;;;;28.30;38.50;;;;;;5113449;28;987;-40
2022/05/16 12:25:32;;;;;;;;;;;28.30;38.50;;;;;;5113369;28;1020;-41
2022/05/16 12:28:21;;;;;;;;;;;28.30;38.60;;;;;;5115070;28;1036;-43
2022/05/16 12:30:52;;;;;;;;;;;28.30;38.50;;;;;;5115233;28;1788;-43
2022/05/16 12:33:33;;;;;;;;;;;28.30;38.50;;;;;;5114734;28;984;-42
2022/05/16 12:36:00;;;;;;;;;;;28.30;38.60;;;;;;5115809;28;1051;-41
2022/05/16 12:38:28;;;;;;;;;;;28.30;38.60;;;;;;5114673;28;1889;-39
2022/05/16 12:41:13;;;;;;;;;;;28.30;38.70;;;;;;5115288;28;996;-40
2022/05/16 12:43:49;;;;;;;;;;;28.30;38.70;;;;;;5116209;28;941;-42
2022/05/16 12:46:24;;;;;;;;;;;28.30;38.70;;;;;;5113559;28;970;-41
2022/05/16 12:49:08;;;;;;;;;;;28.30;38.70;;;;;;5114066;28;996;-41
2022/05/16 12:51:46;;;;;;;;;;;28.30;38.70;;;;;;5112941;28;1598;-39
2022/05/16 12:54:33;;;;;;;;;;;28.30;38.80;;;;;;5115756;28;944;-39
2022/05/16 12:57:04;;;;;;;;;;;28.30;38.80;;;;;;5110079;28;2205;-41
2022/05/16 12:59:37;;;;;;;;;;;28.30;38.80;;;;;;5115035;28;1277;-39
2022/05/16 13:02:10;;;;;;;;;;;28.30;38.90;;;;;;5114914;28;1135;-46
2022/05/16 13:04:47;;;;;;;;;;;28.30;38.90;;;;;;5115228;28;1008;-46
2022/05/16 13:07:17;;;;;;;;;;;28.30;39.00;;;;;;5116194;28;968;-47
2022/05/16 13:09:49;;;;;;;;;;;28.30;38.90;;;;;;5117513;28;969;-47
2022/05/16 13:12:22;;;;;;;;;;;28.30;38.90;;;;;;5117004;28;992;-46
2022/05/16 13:14:56;;;;;;;;;;;28.30;38.90;;;;;;5115157;28;1083;-46
2022/05/16 13:17:33;;;;;;;;;;;28.30;39.00;;;;;;5114780;28;1974;-47
2022/05/16 13:20:01;;;;;;;;;;;28.30;39.00;;;;;;5116954;28;1013;-46
2022/05/16 13:22:29;;;;;;;;;;;28.30;39.00;;;;;;5116914;28;940;-46
2022/05/16 13:24:57;;;;;;;;;;;28.30;39.10;;;;;;5117652;28;1031;-47
2022/05/16 13:30:10;;;;;;;;;;;28.30;39.10;;;;;;5115209;28;1100;-46
2022/05/16 13:32:39;;;;;;;;;;;28.30;39.00;;;;;;5116802;28;1434;-46
2022/05/16 13:35:07;;;;;;;;;;;28.30;39.00;;;;;;5116337;28;1039;-46
2022/05/16 13:37:40;;;;;;;;;;;28.30;39.10;;;;;;5116972;28;1894;-46
2022/05/16 13:40:09;;;;;;;;;;;28.30;40.20;;;;;;5117481;28;1332;-47
2022/05/16 13:42:37;;;;;;;;;;;28.30;39.20;;;;;;5117165;28;918;-46
2022/05/16 13:45:05;;;;;;;;;;;28.30;39.10;;;;;;5116233;28;945;-46
2022/05/16 13:47:33;;;;;;;;;;;28.30;39.10;;;;;;5117092;28;837;-47
2022/05/16 13:50:01;;;;;;;;;;;28.30;39.10;;;;;;5117362;28;986;-46
2022/05/16 13:52:29;;;;;;;;;;;28.30;39.10;;;;;;5115805;28;1000;-46
2022/05/16 13:54:56;;;;;;;;;;;28.30;39.20;;;;;;5115375;28;1012;-46
2022/05/16 13:57:24;;;;;;;;;;;28.40;39.10;;;;;;5116627;28;1999;-47
2022/05/16 13:59:51;;;;;;;;;;;28.40;39.20;;;;;;5115728;28;1287;-46
2022/05/16 14:02:25;;;;;;;;;;;28.40;39.10;;;;;;5115333;28;845;-46
2022/05/16 14:04:53;;;;;;;;;;;28.40;39.10;;;;;;5105866;28;989;-46
2022/05/16 14:07:22;;;;;;;;;;;28.50;39.00;;;;;;5094752;28;1277;-47
2022/05/16 14:09:52;;;;;;;;;;;28.50;39.10;;;;;;5103335;28;1018;-46
2022/05/16 14:12:20;;;;;;;;;;;28.50;39.10;;;;;;5115019;28;984;-46
2022/05/16 14:14:47;;;;;;;;;;;28.50;39.20;;;;;;5114269;28;1024;-47
2022/05/16 14:17:31;;;;;;;;;;;28.60;39.20;;;;;;5115578;28;1976;-47
2022/05/16 14:19:59;;;;;;;;;;;28.60;39.20;;;;;;5113599;28;940;-46
2022/05/16 14:22:30;;;;;;;;;;;28.60;39.20;;;;;;5113715;28;933;-47
2022/05/16 14:25:01;;;;;;;;;;;28.60;39.10;;;;;;5114474;28;910;-46
2022/05/16 14:27:34;;;;;;;;;;;28.60;39.20;;;;;;5116987;28;988;-46
2022/05/16 14:30:01;;;;;;;;;;;28.60;39.10;;;;;;5115701;28;1297;-47
2022/05/16 14:32:31;;;;;;;;;;;28.60;39.10;;;;;;5116850;28;968;-47
2022/05/16 14:35:03;;;;;;;;;;;28.60;39.10;;;;;;5117099;28;1055;-46
2022/05/16 14:37:33;;;;;;;;;;;28.60;39.10;;;;;;5116812;28;1902;-46
2022/05/16 14:40:10;;;;;;;;;;;28.60;39.20;;;;;;5115734;28;931;-46
2022/05/16 14:42:40;;;;;;;;;;;28.70;39.20;;;;;;5117830;28;917;-45
2022/05/16 14:45:08;;;;;;;;;;;28.70;39.20;;;;;;5115672;28;1047;-46
2022/05/16 14:47:39;;;;;;;;;;;28.70;39.10;;;;;;5115349;28;941;-46
2022/05/16 14:50:07;;;;;;;;;;;28.70;39.00;;;;;;5115517;28;945;-46
2022/05/16 14:52:37;;;;;;;;;;;28.70;39.10;;;;;;5116361;28;773;-46
2022/05/16 14:55:05;;;;;;;;;;;28.70;39.10;;;;;;5116343;28;917;-47
2022/05/16 14:57:31;;;;;;;;;;;28.70;39.20;;;;;;5115963;28;1988;-46
2022/05/16 14:59:59;;;;;;;;;;;28.70;39.10;;;;;;5116374;28;1012;-46
2022/05/16 15:05:14;;;;;;;;;;;28.70;39.00;;;;;;5080273;28;1169;-46
2022/05/16 15:07:42;;;;;;;;;;;28.70;39.00;;;;;;5116259;28;925;-47
2022/05/16 15:10:11;;;;;;;;;;;28.70;39.10;;;;;;5115783;28;993;-46
2022/05/16 15:12:37;;;;;;;;;;;28.80;39.10;;;;;;5114173;28;1023;-46
2022/05/16 15:15:05;;;;;;;;;;;28.70;39.00;;;;;;5113916;28;996;-47
2022/05/16 15:17:32;;;;;;;;;;;28.80;39.10;;;;;;5110905;28;1898;-47
2022/05/16 15:19:58;;;;;;;;;;;28.70;39.00;;;;;;5114098;28;975;-46
2022/05/16 15:22:25;;;;;;;;;;;28.80;39.10;;;;;;5114537;28;948;-46
2022/05/16 15:24:54;;;;;;;;;;;28.70;38.90;;;;;;5114443;28;1000;-47
2022/05/16 15:27:23;;;;;;;;;;;28.80;39.00;;;;;;5115496;28;984;-46
2022/05/16 15:29:50;;;;;;;;;;;28.70;39.00;;;;;;5097420;28;1147;-46
2022/05/16 15:32:18;;;;;;;;;;;28.70;39.00;;;;;;5096005;28;1146;-46
2022/05/16 15:34:45;;;;;;;;;;;28.70;39.10;;;;;;5095570;28;999;-46
2022/05/16 15:37:13;;;;;;;;;;;28.70;39.10;;;;;;5096199;28;1461;-46
2022/05/16 15:39:41;;;;;;;;;;;28.60;39.00;;;;;;5096315;28;1906;-46